createdAt,value
2022-09-02T00:01:25.740Z,5.07
2022-09-02T00:03:57.599Z,4.68
2022-09-02T00:06:26.257Z,5.45
2022-09-02T00:08:54.121Z,5.30
2022-09-02T00:11:25.576Z,4.95
2022-09-02T00:13:55.744Z,5.07
2022-09-02T00:16:25.055Z,6.00
2022-09-02T00:18:54.351Z,5.70
2022-09-02T00:21:22.910Z,5.75
2022-09-02T00:23:51.187Z,5.78
2022-09-02T00:26:19.202Z,5.80
2022-09-02T00:28:51.047Z,6.10
2022-09-02T00:31:26.195Z,6.93
2022-09-02T00:33:54.517Z,6.45
2022-09-02T00:36:22.792Z,5.97
2022-09-02T00:38:50.531Z,6.22
2022-09-02T00:41:21.773Z,6.70
2022-09-02T00:43:51.755Z,7.32
2022-09-02T00:46:21.730Z,6.70
2022-09-02T00:48:57.042Z,6.35
2022-09-02T00:51:25.509Z,7.60
2022-09-02T00:53:54.019Z,7.40
2022-09-02T00:56:24.451Z,6.97
2022-09-02T00:58:54.163Z,6.60
2022-09-02T01:01:22.747Z,7.82
2022-09-02T01:03:52.899Z,7.18
2022-09-02T01:06:24.428Z,6.55
2022-09-02T01:08:59.444Z,7.57
2022-09-02T01:11:32.510Z,7.03
2022-09-02T01:14:01.798Z,7.07
2022-09-02T01:16:34.976Z,6.97
2022-09-02T01:19:11.629Z,7.30
2022-09-02T01:21:39.405Z,7.10
2022-09-02T01:24:09.120Z,7.75
2022-09-02T01:26:36.761Z,7.35
2022-09-02T01:29:04.634Z,7.72
2022-09-02T01:31:32.345Z,7.88
2022-09-02T01:34:00.066Z,8.25
2022-09-02T01:36:27.826Z,7.90
2022-09-02T01:38:55.699Z,8.05
2022-09-02T01:41:24.724Z,8.30
2022-09-02T01:43:52.763Z,8.10
2022-09-02T01:46:20.509Z,7.90
2022-09-02T01:48:48.214Z,7.82
2022-09-02T01:51:18.604Z,8.52
2022-09-02T01:53:46.722Z,8.20
2022-09-02T01:56:14.555Z,8.23
2022-09-02T01:58:43.671Z,8.77
2022-09-02T02:01:11.506Z,8.45
2022-09-02T02:03:39.810Z,8.90
2022-09-02T02:06:11.190Z,8.43
2022-09-02T02:08:39.722Z,8.57
2022-09-02T02:11:08.822Z,9.18
2022-09-02T02:13:36.830Z,9.25
2022-09-02T02:16:06.214Z,8.00
2022-09-02T02:18:33.955Z,8.80
2022-09-02T02:21:01.601Z,8.18
2022-09-02T02:23:29.284Z,9.02
2022-09-02T02:25:56.970Z,9.65
2022-09-02T02:28:24.738Z,7.93
2022-09-02T02:30:52.482Z,8.15
2022-09-02T02:33:21.559Z,8.27
2022-09-02T02:35:53.778Z,7.97
2022-09-02T02:38:24.065Z,9.00
2022-09-02T02:40:55.771Z,7.90
2022-09-02T02:43:23.528Z,8.30
2022-09-02T02:45:51.958Z,8.27
2022-09-02T02:48:21.037Z,7.90
2022-09-02T02:50:48.855Z,8.40
2022-09-02T02:53:17.538Z,8.10
2022-09-02T02:55:45.699Z,7.65
2022-09-02T02:58:17.824Z,8.10
2022-09-02T03:00:46.257Z,8.30
2022-09-02T03:03:14.878Z,8.63
2022-09-02T03:05:43.966Z,7.45
2022-09-02T03:08:12.129Z,8.13
2022-09-02T03:10:42.001Z,9.15
2022-09-02T03:13:11.573Z,8.30
2022-09-02T03:15:40.223Z,8.95
2022-09-02T03:18:08.395Z,8.57
2022-09-02T03:20:36.863Z,8.93
2022-09-02T03:23:05.963Z,8.40
2022-09-02T03:25:36.155Z,7.95
2022-09-02T03:28:04.913Z,8.52
2022-09-02T03:30:33.966Z,8.05
2022-09-02T03:33:04.250Z,9.55
2022-09-02T03:35:33.106Z,8.45
2022-09-02T03:38:01.558Z,8.57
2022-09-02T03:40:31.057Z,9.45
2022-09-02T03:43:00.424Z,10.10
2022-09-02T03:45:29.287Z,9.30
2022-09-02T03:47:58.662Z,9.55
2022-09-02T03:50:29.883Z,9.90
2022-09-02T03:52:59.059Z,9.35
2022-09-02T03:55:27.137Z,9.13
2022-09-02T03:57:56.296Z,8.63
2022-09-02T04:00:29.031Z,9.63
2022-09-02T04:02:57.369Z,9.65
2022-09-02T04:05:25.623Z,8.85
2022-09-02T04:07:53.332Z,10.32
2022-09-02T04:10:22.068Z,9.40
2022-09-02T04:12:50.256Z,9.30
2022-09-02T04:15:20.374Z,9.00
2022-09-02T04:17:48.166Z,9.15
2022-09-02T04:20:17.561Z,8.70
2022-09-02T04:22:45.733Z,8.75
2022-09-02T04:25:13.591Z,9.73
2022-09-02T04:27:41.686Z,8.95
2022-09-02T04:30:10.824Z,9.23
2022-09-02T04:32:40.898Z,8.32
2022-09-02T04:35:09.089Z,8.93
2022-09-02T04:37:36.730Z,8.32
2022-09-02T04:40:04.886Z,8.05
2022-09-02T04:42:32.697Z,7.85
2022-09-02T04:45:00.401Z,7.63
2022-09-02T04:47:28.182Z,8.45
2022-09-02T04:49:58.429Z,8.23
2022-09-02T04:52:26.562Z,7.80
2022-09-02T04:54:54.221Z,7.70
2022-09-02T04:57:22.400Z,7.75
2022-09-02T04:59:50.083Z,8.77
2022-09-02T05:02:18.281Z,7.90
2022-09-02T05:04:46.234Z,7.35
2022-09-02T05:07:16.075Z,7.63
2022-09-02T05:09:44.369Z,7.80
2022-09-02T05:12:12.092Z,7.07
2022-09-02T05:14:40.350Z,7.53
2022-09-02T05:17:08.152Z,7.53
2022-09-02T05:19:35.953Z,7.05
2022-09-02T05:22:05.023Z,6.32
2022-09-02T05:24:34.167Z,6.63
2022-09-02T05:27:01.895Z,6.43
2022-09-02T05:29:29.605Z,6.35
2022-09-02T05:31:57.466Z,6.20
2022-09-02T05:34:25.206Z,6.00
2022-09-02T05:36:53.860Z,5.03
2022-09-02T05:39:21.734Z,5.57
2022-09-02T05:41:50.878Z,5.30
2022-09-02T05:44:18.691Z,5.65
2022-09-02T05:46:48.952Z,5.53
2022-09-02T05:49:18.255Z,5.88
2022-09-02T05:51:48.054Z,5.28
2022-09-02T05:54:19.046Z,4.88
2022-09-02T05:56:48.903Z,4.57
2022-09-02T05:59:18.937Z,4.28
2022-09-02T06:01:46.986Z,4.32
2022-09-02T06:04:15.526Z,3.95
2022-09-02T06:06:43.581Z,5.00
2022-09-02T06:09:14.609Z,4.50
2022-09-02T06:11:44.618Z,3.45
2022-09-02T06:14:13.944Z,3.60
2022-09-02T06:16:43.937Z,4.25
2022-09-02T06:19:13.570Z,3.90
2022-09-02T06:21:44.267Z,3.47
2022-09-02T06:24:13.302Z,3.88
2022-09-02T06:26:42.549Z,3.92
2022-09-02T06:29:11.409Z,3.55
2022-09-02T06:31:43.968Z,3.95
2022-09-02T06:34:13.686Z,3.70
2022-09-02T06:36:42.843Z,3.47
2022-09-02T06:39:12.901Z,3.10
2022-09-02T06:41:42.571Z,3.53
2022-09-02T06:44:11.907Z,3.05
2022-09-02T06:46:47.782Z,2.80
2022-09-02T06:49:16.864Z,3.67
2022-09-02T06:51:47.007Z,3.15
2022-09-02T06:54:16.926Z,3.15
2022-09-02T06:56:49.199Z,3.45
2022-09-02T06:59:18.046Z,2.83
2022-09-02T07:01:47.607Z,3.08
2022-09-02T07:04:33.431Z,3.50
2022-09-02T07:07:01.119Z,2.58
2022-09-02T07:09:31.261Z,2.90
2022-09-02T07:12:04.215Z,2.35
2022-09-02T07:14:36.963Z,2.95
2022-09-02T07:17:07.037Z,2.67
2022-09-02T07:19:34.816Z,2.53
2022-09-02T07:22:03.993Z,2.30
2022-09-02T07:24:31.788Z,3.00
2022-09-02T07:26:59.510Z,2.08
2022-09-02T07:29:27.220Z,2.10
2022-09-02T07:31:54.933Z,3.03
2022-09-02T07:34:24.102Z,2.40
2022-09-02T07:36:52.592Z,2.65
2022-09-02T07:39:21.081Z,2.08
2022-09-02T07:41:50.725Z,2.40
2022-09-02T07:44:19.767Z,2.17
2022-09-02T07:46:47.802Z,1.95
2022-09-02T07:49:20.836Z,2.35
2022-09-02T07:51:52.807Z,2.57
2022-09-02T07:54:23.187Z,2.35
2022-09-02T07:56:51.179Z,2.20
2022-09-02T07:59:21.231Z,2.35
2022-09-02T08:01:49.372Z,2.00
2022-09-02T08:04:18.689Z,2.00
2022-09-02T08:06:46.755Z,2.47
2022-09-02T08:09:15.880Z,1.98
2022-09-02T08:11:46.540Z,2.70
2022-09-02T08:14:19.082Z,1.95
2022-09-02T08:16:48.283Z,1.98
2022-09-02T08:19:16.369Z,1.70
2022-09-02T08:21:44.161Z,2.08
2022-09-02T08:24:11.892Z,2.17
2022-09-02T08:26:41.084Z,2.05
2022-09-02T08:29:10.175Z,2.50
2022-09-02T08:31:38.829Z,2.05
2022-09-02T08:34:06.949Z,2.10
2022-09-02T08:36:34.671Z,2.05
2022-09-02T08:39:04.700Z,2.00
2022-09-02T08:41:39.986Z,1.85
2022-09-02T08:44:14.914Z,2.53
2022-09-02T08:46:42.790Z,2.05
2022-09-02T08:49:17.054Z,2.20
2022-09-02T08:51:52.853Z,2.00
2022-09-02T08:54:27.338Z,2.17
2022-09-02T08:56:56.305Z,1.77
2022-09-02T08:59:27.700Z,2.20
2022-09-02T09:02:01.220Z,1.88
2022-09-02T09:04:54.634Z,2.33
2022-09-02T09:07:30.763Z,2.00
2022-09-02T09:10:09.708Z,1.95
2022-09-02T09:12:52.440Z,1.70
2022-09-02T09:15:31.817Z,2.00
2022-09-02T09:18:01.810Z,1.73
2022-09-02T09:20:32.959Z,1.70
2022-09-02T09:23:03.082Z,2.00
2022-09-02T09:25:31.006Z,1.83
2022-09-02T09:27:59.043Z,1.80
2022-09-02T09:30:28.999Z,1.50
2022-09-02T09:32:59.983Z,1.60
2022-09-02T09:35:29.663Z,1.60
2022-09-02T09:37:57.597Z,1.70
2022-09-02T09:40:31.925Z,2.08
2022-09-02T09:43:14.534Z,1.92
2022-09-02T09:45:46.165Z,1.92
2022-09-02T09:48:23.070Z,1.77
2022-09-02T09:51:11.535Z,1.77
2022-09-02T09:53:39.805Z,1.80
2022-09-02T09:56:08.890Z,2.00
2022-09-02T09:58:44.633Z,1.80
2022-09-02T10:01:16.040Z,1.85
2022-09-02T10:03:49.622Z,1.88
2022-09-02T10:06:23.409Z,1.58
2022-09-02T10:08:56.974Z,1.90
2022-09-02T10:11:26.803Z,1.65
2022-09-02T10:14:00.646Z,1.77
2022-09-02T10:16:54.379Z,1.65
2022-09-02T10:19:28.287Z,1.90
2022-09-02T10:22:38.503Z,1.67
2022-09-02T10:25:30.430Z,1.33
2022-09-02T10:28:07.581Z,1.73
2022-09-02T10:30:44.111Z,2.10
2022-09-02T10:35:53.132Z,1.45
2022-09-02T10:38:37.163Z,1.63
2022-09-02T10:41:20.194Z,1.50
2022-09-02T10:44:00.844Z,1.50
2022-09-02T10:46:38.036Z,1.38
2022-09-02T10:49:19.573Z,1.90
2022-09-02T10:51:56.554Z,1.88
2022-09-02T10:54:37.713Z,2.38
2022-09-02T10:57:11.290Z,1.65
2022-09-02T10:59:44.731Z,1.80
2022-09-02T11:02:19.002Z,1.98
2022-09-02T11:04:52.964Z,1.60
2022-09-02T11:07:28.690Z,1.60
2022-09-02T11:10:00.649Z,1.58
2022-09-02T11:12:33.961Z,1.63
2022-09-02T11:15:10.952Z,1.70
2022-09-02T11:17:43.323Z,1.63
2022-09-02T11:20:19.051Z,1.85
2022-09-02T11:22:54.605Z,1.45
2022-09-02T11:25:25.456Z,1.67
2022-09-02T11:28:00.551Z,1.60
2022-09-02T11:30:37.039Z,1.60
2022-09-02T11:33:17.315Z,1.83
2022-09-02T11:35:46.525Z,1.48
2022-09-02T11:38:31.266Z,1.88
2022-09-02T11:44:30.934Z,1.33
2022-09-02T11:47:10.050Z,1.67
2022-09-02T11:50:02.648Z,1.60
2022-09-02T11:52:46.001Z,1.60
2022-09-02T11:55:18.757Z,1.60
2022-09-02T11:57:54.153Z,1.60
2022-09-02T12:00:31.864Z,2.20
2022-09-02T12:03:28.479Z,1.42
2022-09-02T12:06:11.053Z,1.40
2022-09-02T12:09:13.159Z,1.50
2022-09-02T12:11:48.450Z,1.58
2022-09-02T12:14:56.026Z,1.63
2022-09-02T12:17:46.223Z,1.48
2022-09-02T12:20:52.292Z,1.40
2022-09-02T12:23:57.720Z,1.55
2022-09-02T12:26:29.304Z,1.90
2022-09-02T12:29:12.909Z,1.52
2022-09-02T12:31:42.727Z,1.45
2022-09-02T12:34:40.392Z,1.30
2022-09-02T12:37:08.153Z,1.30
2022-09-02T12:39:57.020Z,1.58
2022-09-02T12:42:33.363Z,1.23
2022-09-02T12:47:47.802Z,1.40
2022-09-02T12:50:23.331Z,1.77
2022-09-02T12:52:52.542Z,1.48
2022-09-02T12:55:24.966Z,1.30
2022-09-02T12:57:56.867Z,1.70
2022-09-02T13:00:34.627Z,1.30
2022-09-02T13:03:22.713Z,1.70
2022-09-02T13:05:57.187Z,1.30
2022-09-02T13:09:15.523Z,1.60
2022-09-02T13:12:18.351Z,1.25
2022-09-02T13:15:04.122Z,1.15
2022-09-02T13:18:11.414Z,1.40
2022-09-02T13:21:05.435Z,1.58
2022-09-02T13:24:14.210Z,1.30
2022-09-02T13:27:12.442Z,1.48
2022-09-02T13:30:01.874Z,1.20
2022-09-02T13:32:31.541Z,1.45
2022-09-02T13:35:03.374Z,1.40
2022-09-02T13:37:33.551Z,1.52
2022-09-02T13:40:05.061Z,1.50
2022-09-02T13:42:33.293Z,1.95
2022-09-02T13:45:14.243Z,1.52
2022-09-02T13:47:46.481Z,1.40
2022-09-02T13:50:18.795Z,1.35
2022-09-02T13:54:05.134Z,1.50
2022-09-02T13:55:39.516Z,1.25
2022-09-02T13:58:18.846Z,1.50
2022-09-02T14:00:48.301Z,1.55
2022-09-02T14:03:19.183Z,1.42
2022-09-02T14:05:49.315Z,1.27
2022-09-02T14:08:22.685Z,1.42
2022-09-02T14:10:52.724Z,1.60
2022-09-02T14:13:21.509Z,1.42
2022-09-02T14:15:50.697Z,1.23
2022-09-02T14:18:20.321Z,1.70
2022-09-02T14:21:00.105Z,1.50
2022-09-02T14:23:33.375Z,1.40
2022-09-02T14:26:03.365Z,1.40
2022-09-02T14:28:34.468Z,1.33
2022-09-02T14:31:06.083Z,1.30
2022-09-02T14:33:42.499Z,1.65
2022-09-02T14:36:14.007Z,1.45
2022-09-02T14:38:52.385Z,1.38
2022-09-02T14:41:23.330Z,1.50
2022-09-02T14:43:53.968Z,1.30
2022-09-02T14:46:29.482Z,1.23
2022-09-02T14:49:02.693Z,1.58
2022-09-02T14:51:37.207Z,1.13
2022-09-02T14:54:06.135Z,1.30
2022-09-02T14:56:51.529Z,1.73
2022-09-02T14:59:20.721Z,1.23
2022-09-02T15:01:52.079Z,1.30
2022-09-02T15:04:20.527Z,1.92
2022-09-02T15:06:49.086Z,1.38
2022-09-02T15:09:17.290Z,1.50
2022-09-02T15:11:49.366Z,1.40
2022-09-02T15:14:17.053Z,1.27
2022-09-02T15:16:44.743Z,1.30
2022-09-02T15:19:14.392Z,1.60
2022-09-02T15:21:42.069Z,1.40
2022-09-02T15:24:09.830Z,1.33
2022-09-02T15:26:37.554Z,1.30
2022-09-02T15:29:05.252Z,1.48
2022-09-02T15:31:33.000Z,1.67
2022-09-02T15:34:02.345Z,1.45
2022-09-02T15:36:31.416Z,1.52
2022-09-02T15:39:00.334Z,1.13
2022-09-02T15:41:31.426Z,1.40
2022-09-02T15:44:00.515Z,1.23
2022-09-02T15:46:30.190Z,1.75
2022-09-02T15:49:02.846Z,1.38
2022-09-02T15:51:33.047Z,1.20
2022-09-02T15:54:02.225Z,1.17
2022-09-02T15:56:31.275Z,1.10
2022-09-02T15:58:59.926Z,1.52
2022-09-02T16:01:28.677Z,1.50
2022-09-02T16:03:56.889Z,1.13
2022-09-02T16:06:24.611Z,1.42
2022-09-02T16:08:53.636Z,1.40
2022-09-02T16:11:21.522Z,1.30
2022-09-02T16:13:49.549Z,1.40
2022-09-02T16:16:17.971Z,1.35
2022-09-02T16:18:51.177Z,1.88
2022-09-02T16:21:19.795Z,1.17
2022-09-02T16:23:49.534Z,1.23
2022-09-02T16:26:25.057Z,1.25
2022-09-02T16:28:55.515Z,1.40
2022-09-02T16:31:25.207Z,1.58
2022-09-02T16:33:53.859Z,1.50
2022-09-02T16:36:21.814Z,1.27
2022-09-02T16:38:49.539Z,1.30
2022-09-02T16:41:27.205Z,1.30
2022-09-02T16:43:55.392Z,1.58
2022-09-02T16:46:23.150Z,1.33
2022-09-02T16:48:51.187Z,1.23
2022-09-02T16:51:19.022Z,1.25
2022-09-02T16:53:47.147Z,1.35
2022-09-02T16:56:15.487Z,1.25
2022-09-02T16:58:44.623Z,1.65
2022-09-02T17:01:13.591Z,1.58
2022-09-02T17:03:41.915Z,1.10
2022-09-02T17:06:10.261Z,1.42
2022-09-02T17:08:38.423Z,1.40
2022-09-02T17:11:18.221Z,1.15
2022-09-02T17:13:47.846Z,1.73
2022-09-02T17:16:15.718Z,1.17
2022-09-02T17:18:43.469Z,1.27
2022-09-02T17:21:21.998Z,1.40
2022-09-02T17:23:50.356Z,1.20
2022-09-02T17:26:18.783Z,1.55
2022-09-02T17:28:47.899Z,1.35
2022-09-02T17:31:20.443Z,1.50
2022-09-02T17:33:48.459Z,1.38
2022-09-02T17:36:16.653Z,1.13
2022-09-02T17:38:44.958Z,1.50
2022-09-02T17:41:30.276Z,1.38
2022-09-02T17:43:59.735Z,1.23
2022-09-02T17:46:27.515Z,1.25
2022-09-02T17:49:15.782Z,1.20
2022-09-02T17:51:44.841Z,1.30
2022-09-02T17:54:13.511Z,1.77
2022-09-02T17:56:57.611Z,1.67
2022-09-02T17:59:31.216Z,1.90
2022-09-02T18:02:28.037Z,1.65
2022-09-02T18:05:03.922Z,1.88
2022-09-02T18:07:41.235Z,1.70
2022-09-02T18:10:08.958Z,1.48
2022-09-02T18:12:37.961Z,1.60
2022-09-02T18:15:08.356Z,2.13
2022-09-02T18:17:38.055Z,1.98
2022-09-02T18:20:13.274Z,1.85
2022-09-02T18:23:09.942Z,1.90
2022-09-02T18:25:51.595Z,1.88
2022-09-02T18:28:30.151Z,1.77
2022-09-02T18:31:12.429Z,2.65
2022-09-02T18:33:56.005Z,2.65
2022-09-02T18:36:35.785Z,2.40
2022-09-02T18:39:19.070Z,2.15
2022-09-02T18:42:01.907Z,2.50
2022-09-02T18:44:39.104Z,2.38
2022-09-02T18:47:14.363Z,2.80
2022-09-02T18:49:44.647Z,2.83
2022-09-02T18:52:12.714Z,2.55
2022-09-02T18:54:47.086Z,2.60
2022-09-02T18:57:16.096Z,2.92
2022-09-02T18:59:50.984Z,2.60
2022-09-02T19:02:29.286Z,2.63
2022-09-02T19:04:59.101Z,2.60
2022-09-02T19:07:46.556Z,3.05
2022-09-02T19:10:14.719Z,3.30
2022-09-02T19:12:43.703Z,2.90
2022-09-02T19:15:13.424Z,3.40
2022-09-02T19:17:43.009Z,3.03
2022-09-02T19:20:11.138Z,3.42
2022-09-02T19:22:41.984Z,3.55
2022-09-02T19:25:13.273Z,3.28
2022-09-02T19:27:44.761Z,3.47
2022-09-02T19:30:14.818Z,3.42
2022-09-02T19:32:47.554Z,3.63
2022-09-02T19:35:18.173Z,3.67
2022-09-02T19:37:47.113Z,3.28
2022-09-02T19:40:19.584Z,3.95
2022-09-02T19:42:47.490Z,4.20
2022-09-02T19:45:16.799Z,3.25
2022-09-02T19:50:34.598Z,3.38
2022-09-02T19:53:02.714Z,3.25
2022-09-02T19:55:33.530Z,3.38
2022-09-02T19:58:01.288Z,3.67
2022-09-02T20:00:29.083Z,3.30
2022-09-02T20:02:58.156Z,3.10
2022-09-02T20:05:26.009Z,3.15
2022-09-02T20:07:53.788Z,3.13
2022-09-02T20:10:22.598Z,4.10
2022-09-02T20:12:56.205Z,3.47
2022-09-02T20:15:23.964Z,3.38
2022-09-02T20:17:51.669Z,3.30
2022-09-02T20:20:23.858Z,3.03
2022-09-02T20:22:56.101Z,3.33
2022-09-02T20:25:33.517Z,3.88
2022-09-02T20:28:13.871Z,3.80
2022-09-02T20:30:48.606Z,4.05
2022-09-02T20:33:19.299Z,4.07
2022-09-02T20:36:02.494Z,5.22
2022-09-02T20:38:58.133Z,6.15
2022-09-02T20:41:33.899Z,7.10
2022-09-02T20:44:23.694Z,7.50
2022-09-02T20:47:05.748Z,8.70
2022-09-02T20:49:53.984Z,8.98
2022-09-02T20:52:31.386Z,8.50
2022-09-02T20:55:05.845Z,8.27
2022-09-02T20:57:48.474Z,8.70
2022-09-02T21:00:20.451Z,8.88
2022-09-02T21:02:55.961Z,9.13
2022-09-02T21:05:29.123Z,9.35
2022-09-02T21:08:05.329Z,8.68
2022-09-02T21:10:37.305Z,9.02
2022-09-02T21:13:11.164Z,9.35
2022-09-02T21:15:45.829Z,9.95
2022-09-02T21:18:20.111Z,9.20
2022-09-02T21:20:54.039Z,9.65
2022-09-02T21:23:28.389Z,9.57
2022-09-02T21:25:57.979Z,10.48
2022-09-02T21:28:33.687Z,9.38
2022-09-02T21:31:06.136Z,10.40
2022-09-02T21:33:36.170Z,11.13
2022-09-02T21:36:06.147Z,10.32
2022-09-02T21:38:40.503Z,9.70
2022-09-02T21:41:21.375Z,11.07
2022-09-02T21:43:56.678Z,11.30
2022-09-02T21:46:33.232Z,12.05
2022-09-02T21:49:10.669Z,12.07
2022-09-02T21:51:46.717Z,10.55
2022-09-02T21:54:35.219Z,11.00
2022-09-02T21:57:20.000Z,11.43
2022-09-02T22:00:01.474Z,11.15
2022-09-02T22:02:38.797Z,11.32
2022-09-02T22:05:21.050Z,12.07
2022-09-02T22:07:51.614Z,12.68
2022-09-02T22:10:29.220Z,12.00
2022-09-02T22:13:03.433Z,11.55
2022-09-02T22:15:43.473Z,11.38
2022-09-02T22:18:20.909Z,11.70
2022-09-02T22:20:52.226Z,10.30
2022-09-02T22:23:26.206Z,10.63
2022-09-02T22:25:56.147Z,10.90
2022-09-02T22:28:32.401Z,11.73
2022-09-02T22:31:05.546Z,11.15
2022-09-02T22:33:40.414Z,11.77
2022-09-02T22:36:18.158Z,11.32
2022-09-02T22:38:49.705Z,11.82
2022-09-02T22:41:26.168Z,10.73
2022-09-02T22:46:53.932Z,10.90
2022-09-02T22:52:44.928Z,11.95
2022-09-02T22:55:13.930Z,11.10
2022-09-02T22:57:52.248Z,12.80
2022-09-02T23:00:20.695Z,9.88
2022-09-02T23:03:01.794Z,10.63
2022-09-02T23:05:44.959Z,10.55
2022-09-02T23:08:14.304Z,9.95
2022-09-02T23:10:48.899Z,11.27
2022-09-02T23:13:24.771Z,10.88
2022-09-02T23:16:04.694Z,10.90
2022-09-02T23:18:42.990Z,11.18
2022-09-02T23:21:17.781Z,10.07
2022-09-02T23:23:55.755Z,10.07
2022-09-02T23:26:35.358Z,11.27
2022-09-02T23:29:15.684Z,9.77
2022-09-02T23:32:00.428Z,11.32
2022-09-02T23:34:43.644Z,11.00
2022-09-02T23:37:17.895Z,11.65
2022-09-02T23:39:57.873Z,12.23
2022-09-02T23:42:25.989Z,11.68
2022-09-02T23:45:01.450Z,11.73
2022-09-02T23:47:42.500Z,11.93
2022-09-02T23:50:21.311Z,11.73
2022-09-02T23:52:56.590Z,12.48
2022-09-02T23:55:41.344Z,11.85
2022-09-02T23:58:28.206Z,12.80
